Terminal Aerodrome Forecast
Issued by NWS Jackson, MS

Home | Current Version | Previous Version | Text Only | Print | Product List | Glossary On
Versions: 1 2 3 4 5 6 7 8 9 10 11 12 13 14 15 16
000
FTUS44 KMEG 291533 AAC
TAFTUP
TAF AMD
KTUP 291533Z 2916/3012 22006KT P6SM BKN015
     FM291630 19008KT P6SM SCT030
     FM300100 16005KT P6SM SCT200=

USA.gov is the U.S. government's official web portal to all federal, state and local government web resources and services.